createdAt,value
2019-05-18T00:04:58.118Z,15.36
2019-05-18T00:10:03.538Z,15.25
2019-05-18T00:15:09.047Z,15.16
2019-05-18T00:20:14.773Z,15.09
2019-05-18T00:25:20.224Z,15.02
2019-05-18T00:30:25.642Z,14.94
2019-05-18T00:35:31.055Z,14.86
2019-05-18T00:40:36.538Z,14.80
2019-05-18T00:45:42.028Z,14.77
2019-05-18T00:50:47.505Z,14.71
2019-05-18T00:55:53.092Z,14.64
2019-05-18T01:00:58.564Z,14.57
2019-05-18T01:06:03.977Z,14.48
2019-05-18T01:11:09.442Z,14.40
2019-05-18T01:16:14.937Z,14.32
2019-05-18T01:21:20.458Z,14.23
2019-05-18T01:26:25.909Z,14.15
2019-05-18T01:31:31.413Z,14.08
2019-05-18T01:36:36.885Z,14.03
2019-05-18T01:41:42.359Z,13.96
2019-05-18T01:46:47.843Z,13.92
2019-05-18T01:51:53.357Z,13.87
2019-05-18T01:56:58.792Z,13.83
2019-05-18T02:02:04.365Z,13.84
2019-05-18T02:07:09.906Z,13.91
2019-05-18T02:12:15.428Z,13.97
2019-05-18T02:17:20.853Z,14.00
2019-05-18T02:22:26.291Z,14.01
2019-05-18T02:27:31.822Z,14.00
2019-05-18T02:32:37.246Z,13.97
2019-05-18T02:37:42.687Z,13.90
2019-05-18T02:42:48.266Z,13.82
2019-05-18T02:47:53.674Z,13.76
2019-05-18T02:52:59.076Z,13.73
2019-05-18T02:58:05.679Z,13.74
2019-05-18T03:03:11.151Z,13.81
2019-05-18T03:08:16.551Z,13.91
2019-05-18T03:13:21.984Z,14.00
2019-05-18T03:18:27.452Z,14.07
2019-05-18T03:23:32.905Z,14.12
2019-05-18T03:28:38.421Z,14.18
2019-05-18T03:33:43.886Z,14.23
2019-05-18T03:38:49.300Z,14.26
2019-05-18T03:43:54.737Z,14.30
2019-05-18T03:49:00.226Z,14.37
2019-05-18T03:54:05.676Z,14.45
2019-05-18T03:59:11.154Z,14.50
2019-05-18T04:04:18.590Z,14.51
2019-05-18T04:09:23.749Z,14.58
2019-05-18T04:14:29.176Z,14.67
2019-05-18T04:19:45.398Z,14.76
2019-05-18T04:24:41.730Z,14.79
2019-05-18T04:29:47.298Z,14.74
2019-05-18T04:34:52.746Z,14.74
2019-05-18T04:39:58.197Z,14.78
2019-05-18T04:45:03.632Z,14.87
2019-05-18T04:50:10.751Z,14.92
2019-05-18T04:55:16.216Z,14.98
2019-05-18T05:00:21.898Z,15.07
2019-05-18T05:05:27.398Z,15.23
2019-05-18T05:10:32.837Z,15.40
2019-05-18T05:15:38.312Z,15.55
2019-05-18T05:20:43.762Z,15.73
2019-05-18T05:25:49.240Z,15.89
2019-05-18T05:30:54.769Z,16.04
2019-05-18T05:36:00.208Z,16.17
2019-05-18T05:41:05.640Z,16.25
2019-05-18T05:46:11.080Z,16.28
2019-05-18T05:51:16.482Z,16.40
2019-05-18T05:56:21.946Z,16.58
2019-05-18T06:01:27.368Z,16.77
2019-05-18T06:06:32.803Z,16.93
2019-05-18T06:11:38.267Z,17.05
2019-05-18T06:16:43.733Z,17.34
2019-05-18T06:21:49.142Z,17.64
2019-05-18T06:26:54.589Z,17.80
2019-05-18T06:32:00.030Z,17.86
2019-05-18T06:37:05.503Z,17.98
2019-05-18T06:42:11.090Z,18.04
2019-05-18T06:47:16.550Z,18.19
2019-05-18T06:52:22.088Z,18.43
2019-05-18T06:57:27.583Z,18.89
2019-05-18T07:02:33.030Z,19.20
2019-05-18T07:07:38.568Z,19.60
2019-05-18T07:12:44.004Z,21.80
2019-05-18T07:17:49.454Z,26.72
2019-05-18T07:22:54.947Z,31.30
2019-05-18T07:28:00.769Z,33.82
2019-05-18T07:33:06.442Z,35.56
2019-05-18T07:38:12.159Z,36.70
2019-05-18T07:43:17.851Z,35.61
2019-05-18T07:48:23.674Z,33.17
2019-05-18T07:53:29.383Z,30.80
2019-05-18T07:58:35.137Z,29.06
2019-05-18T08:03:40.608Z,27.81
2019-05-18T08:08:46.176Z,26.88
2019-05-18T08:13:51.622Z,26.25
2019-05-18T08:18:58.215Z,26.28
2019-05-18T08:24:03.845Z,26.31
2019-05-18T08:29:09.397Z,26.94
2019-05-18T08:34:14.834Z,28.31
2019-05-18T08:39:20.445Z,29.77
2019-05-18T08:44:26.245Z,30.98
2019-05-18T08:49:32.007Z,32.62
2019-05-18T08:54:37.743Z,34.29
2019-05-18T08:59:43.590Z,36.23
2019-05-18T09:04:49.305Z,35.88
2019-05-18T09:09:55.064Z,33.43
2019-05-18T09:15:00.935Z,31.46
2019-05-18T09:20:06.837Z,30.21
2019-05-18T09:25:12.524Z,29.21
2019-05-18T09:30:18.139Z,28.31
2019-05-18T09:35:23.583Z,27.90
2019-05-18T09:40:29.050Z,27.89
2019-05-18T09:45:34.475Z,28.09
2019-05-18T09:50:39.947Z,28.43
2019-05-18T09:55:45.526Z,29.05
2019-05-18T10:00:51.293Z,30.00
2019-05-18T10:05:57.078Z,30.63
2019-05-18T10:11:02.818Z,30.90
2019-05-18T10:16:08.628Z,30.64
2019-05-18T10:21:14.309Z,30.69
2019-05-18T10:26:20.018Z,30.62
2019-05-18T10:31:25.778Z,30.17
2019-05-18T10:36:31.537Z,29.28
2019-05-18T10:41:37.286Z,28.57
2019-05-18T10:46:42.827Z,28.06
2019-05-18T10:51:48.365Z,27.44
2019-05-18T10:56:53.960Z,27.10
2019-05-18T11:01:59.505Z,26.99
2019-05-18T11:07:04.996Z,27.01
2019-05-18T11:12:10.455Z,27.11
2019-05-18T11:17:15.854Z,27.16
2019-05-18T11:22:21.474Z,27.28
2019-05-18T11:27:26.946Z,27.50
2019-05-18T11:32:32.384Z,27.49
2019-05-18T11:37:37.902Z,27.25
2019-05-18T11:42:43.385Z,26.84
2019-05-18T11:47:48.991Z,26.40
2019-05-18T11:52:54.484Z,26.03
2019-05-18T11:58:00.313Z,25.94
2019-05-18T12:03:05.970Z,25.96
2019-05-18T12:08:11.378Z,25.96
2019-05-18T12:13:16.884Z,26.04
2019-05-18T12:18:22.408Z,26.08
2019-05-18T12:23:27.872Z,26.06
2019-05-18T12:28:33.400Z,26.20
2019-05-18T12:33:38.952Z,26.31
2019-05-18T12:38:44.546Z,26.52
2019-05-18T12:43:50.187Z,26.79
2019-05-18T12:48:55.772Z,26.92
2019-05-18T12:54:01.261Z,27.15
2019-05-18T12:59:06.748Z,27.43
2019-05-18T13:04:12.163Z,27.75
2019-05-18T13:09:17.634Z,27.98
2019-05-18T13:14:23.050Z,28.05
2019-05-18T13:19:28.889Z,28.33
2019-05-18T13:24:44.750Z,28.79
2019-05-18T13:29:41.830Z,29.07
2019-05-18T13:34:47.739Z,29.22
2019-05-18T13:39:53.750Z,29.16
2019-05-18T13:44:59.443Z,29.20
2019-05-18T13:50:05.316Z,29.18
2019-05-18T13:55:11.066Z,29.01
2019-05-18T14:00:16.951Z,28.96
2019-05-18T14:05:22.707Z,28.94
2019-05-18T14:10:28.556Z,28.73
2019-05-18T14:15:34.337Z,28.64
2019-05-18T14:20:40.155Z,28.57
2019-05-18T14:25:46.290Z,28.34
2019-05-18T14:30:51.841Z,28.19
2019-05-18T14:35:57.537Z,28.29
2019-05-18T14:41:03.302Z,28.60
2019-05-18T14:46:09.075Z,28.98
2019-05-18T14:51:14.787Z,29.11
2019-05-18T14:56:20.521Z,29.17
2019-05-18T15:01:26.297Z,29.21
2019-05-18T15:06:32.090Z,29.22
2019-05-18T15:11:37.865Z,29.29
2019-05-18T15:16:43.753Z,29.30
2019-05-18T15:21:49.620Z,29.31
2019-05-18T15:26:55.396Z,29.34
2019-05-18T15:32:01.163Z,29.27
2019-05-18T15:37:06.863Z,29.04
2019-05-18T15:42:12.748Z,28.60
2019-05-18T15:47:18.524Z,28.18
2019-05-18T15:52:23.971Z,27.73
2019-05-18T15:57:29.511Z,27.01
2019-05-18T16:02:35.101Z,26.40
2019-05-18T16:07:40.623Z,26.07
2019-05-18T16:12:46.104Z,25.95
2019-05-18T16:17:51.676Z,25.79
2019-05-18T16:22:57.128Z,25.70
2019-05-18T16:28:02.663Z,25.70
2019-05-18T16:33:08.090Z,25.68
2019-05-18T16:38:13.529Z,25.38
2019-05-18T16:43:19.080Z,25.07
2019-05-18T16:48:24.538Z,24.87
2019-05-18T16:53:30.104Z,24.65
2019-05-18T16:58:35.535Z,24.42
2019-05-18T17:03:41.070Z,24.33
2019-05-18T17:08:46.480Z,24.24
2019-05-18T17:13:51.900Z,24.06
2019-05-18T17:18:57.404Z,23.82
2019-05-18T17:24:02.933Z,23.58
2019-05-18T17:29:08.450Z,23.35
2019-05-18T17:34:13.928Z,23.14
2019-05-18T17:39:19.780Z,22.97
2019-05-18T17:44:25.266Z,22.83
2019-05-18T17:49:30.850Z,22.75
2019-05-18T17:54:36.461Z,22.70
2019-05-18T17:59:42.248Z,22.62
2019-05-18T18:04:47.781Z,22.57
2019-05-18T18:09:53.395Z,22.48
2019-05-18T18:14:58.875Z,22.39
2019-05-18T18:20:04.359Z,22.29
2019-05-18T18:25:10.061Z,22.17
2019-05-18T18:30:15.678Z,22.06
2019-05-18T18:35:21.261Z,21.98
2019-05-18T18:40:26.873Z,21.94
2019-05-18T18:45:32.335Z,21.86
2019-05-18T18:50:37.832Z,21.79
2019-05-18T18:55:43.264Z,21.70
2019-05-18T19:00:48.773Z,21.61
2019-05-18T19:05:54.304Z,21.52
2019-05-18T19:10:59.716Z,21.46
2019-05-18T19:16:05.247Z,21.38
2019-05-18T19:21:10.654Z,21.25
2019-05-18T19:26:16.145Z,21.10
2019-05-18T19:31:21.621Z,21.00
2019-05-18T19:36:27.153Z,20.95
2019-05-18T19:41:32.588Z,20.90
2019-05-18T19:46:38.092Z,20.89
2019-05-18T19:51:43.541Z,20.83
2019-05-18T19:56:48.972Z,20.78
2019-05-18T20:01:54.585Z,20.71
2019-05-18T20:07:00.001Z,20.63
2019-05-18T20:12:05.409Z,20.53
2019-05-18T20:17:10.875Z,20.44
2019-05-18T20:22:16.489Z,20.35
2019-05-18T20:27:21.952Z,20.29
2019-05-18T20:32:27.679Z,20.25
2019-05-18T20:37:33.113Z,20.21
2019-05-18T20:42:39.509Z,20.20
2019-05-18T20:47:44.912Z,20.19
2019-05-18T20:52:50.447Z,20.16
2019-05-18T20:57:55.845Z,20.09
2019-05-18T21:03:01.310Z,20.00
2019-05-18T21:08:08.357Z,19.92
2019-05-18T21:13:13.828Z,19.79
2019-05-18T21:18:19.334Z,19.63
2019-05-18T21:23:24.759Z,19.49
2019-05-18T21:28:30.275Z,19.26
2019-05-18T21:33:35.701Z,19.17
2019-05-18T21:38:41.112Z,19.05
2019-05-18T21:43:46.572Z,18.93
2019-05-18T21:48:52.004Z,18.82
2019-05-18T21:53:57.438Z,18.74
2019-05-18T21:59:11.240Z,18.68
2019-05-18T22:04:10.408Z,18.57
2019-05-18T22:09:15.934Z,18.56
2019-05-18T22:14:21.574Z,18.53
2019-05-18T22:19:26.997Z,18.52
2019-05-18T22:24:32.681Z,18.54
2019-05-18T22:29:38.107Z,18.54
2019-05-18T22:34:43.672Z,18.51
2019-05-18T22:39:49.116Z,18.49
2019-05-18T22:44:54.578Z,18.49
2019-05-18T22:50:00.077Z,18.47
2019-05-18T22:55:05.574Z,18.48
2019-05-18T23:00:10.998Z,18.49
2019-05-18T23:05:16.649Z,18.46
2019-05-18T23:10:22.082Z,18.44
2019-05-18T23:15:27.512Z,18.44
2019-05-18T23:20:32.940Z,18.43
2019-05-18T23:25:38.372Z,18.44
2019-05-18T23:30:43.842Z,18.45
2019-05-18T23:35:49.353Z,18.45
2019-05-18T23:40:54.798Z,18.44
2019-05-18T23:46:00.279Z,18.38
2019-05-18T23:51:05.742Z,18.30
2019-05-18T23:56:11.289Z,18.18
